createdAt,value
2023-03-31T00:00:39.750Z,29.24
2023-03-31T00:01:39.787Z,30.40
2023-03-31T00:02:39.933Z,29.55
2023-03-31T00:03:39.981Z,27.11
2023-03-31T00:04:39.999Z,30.27
2023-03-31T00:05:39.998Z,34.58
2023-03-31T00:06:40.058Z,29.93
2023-03-31T00:07:40.106Z,32.43
2023-03-31T00:08:40.126Z,30.13
2023-03-31T00:09:40.189Z,29.52
2023-03-31T00:10:40.241Z,33.31
2023-03-31T00:11:40.290Z,32.72
2023-03-31T00:12:40.312Z,27.91
2023-03-31T00:13:40.389Z,30.86
2023-03-31T00:14:40.434Z,32.46
2023-03-31T00:15:40.465Z,34.76
2023-03-31T00:16:40.601Z,28.97
2023-03-31T00:17:40.621Z,30.70
2023-03-31T00:18:40.621Z,30.05
2023-03-31T00:19:40.671Z,30.44
2023-03-31T00:20:40.733Z,34.14
2023-03-31T00:21:40.801Z,33.01
2023-03-31T00:22:40.823Z,31.32
2023-03-31T00:23:40.886Z,34.27
2023-03-31T00:24:40.930Z,29.55
2023-03-31T00:25:40.977Z,32.00
2023-03-31T00:26:41.065Z,32.23
2023-03-31T00:27:41.074Z,32.80
2023-03-31T00:28:41.113Z,34.41
2023-03-31T00:29:41.191Z,31.90
2023-03-31T00:30:41.220Z,35.89
2023-03-31T00:31:41.303Z,37.06
2023-03-31T00:32:41.340Z,33.32
2023-03-31T00:33:41.394Z,35.94
2023-03-31T00:34:41.425Z,36.28
2023-03-31T00:35:41.495Z,32.00
2023-03-31T00:36:41.520Z,34.34
2023-03-31T00:37:41.574Z,32.60
2023-03-31T00:38:41.632Z,33.11
2023-03-31T00:39:41.664Z,32.00
2023-03-31T00:40:41.728Z,32.17
2023-03-31T00:41:41.763Z,33.09
2023-03-31T00:42:41.828Z,31.96
2023-03-31T00:43:41.871Z,34.20
2023-03-31T00:44:41.915Z,33.97
2023-03-31T00:45:42.004Z,34.29
2023-03-31T00:46:42.017Z,37.18
2023-03-31T00:47:42.093Z,34.22
2023-03-31T00:48:42.123Z,29.18
2023-03-31T00:49:42.206Z,27.70
2023-03-31T00:50:42.202Z,30.88
2023-03-31T00:51:42.284Z,32.53
2023-03-31T00:52:42.315Z,32.18
2023-03-31T00:53:42.372Z,32.39
2023-03-31T00:54:42.431Z,30.00
2023-03-31T00:55:42.473Z,35.66
2023-03-31T00:56:42.521Z,35.17
2023-03-31T00:57:42.572Z,31.55
2023-03-31T00:58:42.631Z,32.19
2023-03-31T00:59:42.694Z,33.42
2023-03-31T01:00:42.726Z,34.32
2023-03-31T01:01:42.950Z,33.62
2023-03-31T01:02:42.850Z,33.52
2023-03-31T01:03:42.881Z,31.26
2023-03-31T01:04:42.909Z,34.25
2023-03-31T01:05:42.961Z,32.55
2023-03-31T01:06:43.030Z,32.76
2023-03-31T01:07:43.089Z,31.67
2023-03-31T01:08:43.137Z,33.01
2023-03-31T01:09:43.186Z,32.50
2023-03-31T01:10:43.233Z,32.39
2023-03-31T01:11:43.298Z,32.49
2023-03-31T01:12:43.350Z,30.54
2023-03-31T01:13:43.394Z,31.51
2023-03-31T01:14:43.444Z,30.20
2023-03-31T01:15:43.511Z,30.79
2023-03-31T01:16:43.656Z,32.81
2023-03-31T01:17:43.783Z,31.64
2023-03-31T01:18:43.689Z,32.56
2023-03-31T01:19:43.741Z,29.26
2023-03-31T01:20:43.770Z,28.32
2023-03-31T01:21:43.819Z,27.96
2023-03-31T01:22:43.890Z,28.95
2023-03-31T01:23:43.936Z,26.86
2023-03-31T01:24:44.004Z,31.63
2023-03-31T01:25:44.085Z,28.71
2023-03-31T01:26:44.104Z,27.06
2023-03-31T01:27:44.180Z,30.04
2023-03-31T01:28:44.212Z,32.22
2023-03-31T01:29:44.296Z,29.57
2023-03-31T01:30:44.354Z,32.87
2023-03-31T01:31:44.416Z,29.37
2023-03-31T01:32:44.445Z,31.73
2023-03-31T01:33:44.499Z,29.18
2023-03-31T01:34:44.528Z,28.77
2023-03-31T01:35:44.621Z,29.74
2023-03-31T01:36:44.712Z,27.41
2023-03-31T01:37:44.693Z,32.66
2023-03-31T01:38:44.765Z,33.52
2023-03-31T01:39:44.798Z,31.01
2023-03-31T01:40:44.861Z,29.48
2023-03-31T01:41:44.900Z,33.07
2023-03-31T01:42:44.969Z,34.55
2023-03-31T01:43:45.010Z,30.64
2023-03-31T01:44:45.108Z,32.31
2023-03-31T01:45:45.154Z,38.97
2023-03-31T01:46:45.255Z,35.77
2023-03-31T01:47:45.332Z,39.79
2023-03-31T01:48:45.306Z,34.19
2023-03-31T01:49:45.361Z,36.65
2023-03-31T01:50:45.398Z,35.62
2023-03-31T01:51:45.523Z,36.48
2023-03-31T01:52:45.517Z,37.72
2023-03-31T01:53:45.569Z,36.10
2023-03-31T01:54:45.633Z,35.22
2023-03-31T01:55:45.708Z,37.42
2023-03-31T01:56:45.762Z,37.55
2023-03-31T01:57:45.795Z,36.24
2023-03-31T01:58:45.811Z,36.16
2023-03-31T01:59:45.860Z,33.98
2023-03-31T02:00:45.929Z,35.52
2023-03-31T02:01:46.030Z,36.78
2023-03-31T02:02:46.130Z,38.73
2023-03-31T02:03:46.214Z,37.23
2023-03-31T02:04:46.125Z,33.29
2023-03-31T02:05:46.157Z,32.16
2023-03-31T02:06:46.216Z,26.08
2023-03-31T02:07:46.259Z,29.36
2023-03-31T02:08:46.301Z,32.61
2023-03-31T02:09:46.353Z,33.86
2023-03-31T02:10:46.402Z,34.25
2023-03-31T02:11:46.479Z,32.21
2023-03-31T02:12:46.500Z,32.74
2023-03-31T02:13:46.548Z,28.42
2023-03-31T02:14:46.644Z,31.03
2023-03-31T02:15:46.668Z,29.25
2023-03-31T02:16:46.798Z,31.33
2023-03-31T02:17:46.817Z,26.90
2023-03-31T02:18:46.813Z,33.46
2023-03-31T02:19:46.888Z,32.33
2023-03-31T02:20:46.930Z,30.64
2023-03-31T02:21:46.992Z,33.27
2023-03-31T02:22:47.059Z,28.85
2023-03-31T02:23:47.104Z,31.31
2023-03-31T02:24:47.152Z,30.77
2023-03-31T02:25:47.206Z,29.41
2023-03-31T02:26:47.269Z,29.23
2023-03-31T02:27:47.311Z,28.77
2023-03-31T02:28:47.357Z,26.71
2023-03-31T02:29:47.412Z,28.43
2023-03-31T02:30:47.462Z,30.52
2023-03-31T02:31:47.590Z,32.30
2023-03-31T02:32:47.588Z,28.47
2023-03-31T02:33:47.638Z,27.74
2023-03-31T02:34:47.671Z,32.38
2023-03-31T02:35:47.764Z,33.29
2023-03-31T02:36:47.765Z,32.84
2023-03-31T02:37:47.834Z,29.07
2023-03-31T02:38:47.912Z,33.62
2023-03-31T02:39:47.940Z,35.67
2023-03-31T02:40:48.008Z,35.38
2023-03-31T02:41:48.035Z,31.52
2023-03-31T02:42:48.122Z,30.97
2023-03-31T02:43:48.170Z,31.69
2023-03-31T02:44:48.202Z,30.51
2023-03-31T02:45:48.334Z,28.73
2023-03-31T02:46:48.338Z,30.40
2023-03-31T02:47:48.404Z,30.26
2023-03-31T02:48:48.440Z,31.14
2023-03-31T02:49:48.504Z,35.65
2023-03-31T02:50:48.569Z,30.18
2023-03-31T02:51:48.617Z,28.83
2023-03-31T02:52:48.675Z,33.07
2023-03-31T02:53:48.713Z,29.04
2023-03-31T02:54:48.800Z,31.37
2023-03-31T02:55:48.835Z,31.39
2023-03-31T02:56:48.945Z,33.95
2023-03-31T02:57:48.961Z,33.74
2023-03-31T02:58:49.011Z,26.99
2023-03-31T02:59:49.069Z,28.02
2023-03-31T03:00:49.204Z,30.64
2023-03-31T03:01:49.202Z,26.50
2023-03-31T03:02:49.415Z,27.66
2023-03-31T03:03:49.320Z,30.48
2023-03-31T03:04:49.367Z,29.35
2023-03-31T03:05:49.414Z,27.03
2023-03-31T03:06:49.486Z,30.24
2023-03-31T03:07:49.531Z,30.99
2023-03-31T03:08:49.584Z,28.80
2023-03-31T03:09:49.652Z,29.01
2023-03-31T03:10:49.689Z,31.84
2023-03-31T03:11:49.753Z,33.76
2023-03-31T03:12:49.817Z,29.03
2023-03-31T03:13:49.883Z,35.04
2023-03-31T03:14:49.921Z,32.38
2023-03-31T03:15:49.992Z,31.78
2023-03-31T03:16:50.109Z,35.47
2023-03-31T03:17:50.177Z,35.46
2023-03-31T03:18:50.159Z,33.58
2023-03-31T03:19:50.216Z,32.51
2023-03-31T03:20:50.294Z,31.90
2023-03-31T03:21:50.345Z,34.32
2023-03-31T03:22:50.413Z,32.24
2023-03-31T03:23:50.488Z,34.40
2023-03-31T03:24:50.519Z,32.68
2023-03-31T03:25:50.580Z,34.69
2023-03-31T03:26:50.655Z,31.32
2023-03-31T03:27:50.709Z,32.06
2023-03-31T03:28:50.779Z,29.62
2023-03-31T03:29:50.823Z,28.80
2023-03-31T03:30:50.906Z,29.59
2023-03-31T03:31:50.959Z,28.92
2023-03-31T03:32:51.066Z,28.99
2023-03-31T03:33:51.094Z,28.61
2023-03-31T03:34:51.145Z,26.56
2023-03-31T03:35:51.233Z,26.35
2023-03-31T03:36:51.265Z,26.55
2023-03-31T03:37:51.328Z,29.27
2023-03-31T03:38:51.376Z,27.19
2023-03-31T03:39:51.460Z,30.96
2023-03-31T03:40:51.498Z,33.81
2023-03-31T03:41:51.654Z,34.62
2023-03-31T03:42:51.618Z,31.38
2023-03-31T03:43:51.684Z,29.04
2023-03-31T03:44:51.724Z,33.32
2023-03-31T03:45:51.871Z,35.13
2023-03-31T03:46:51.832Z,34.18
2023-03-31T03:47:51.989Z,35.49
2023-03-31T03:48:51.955Z,36.97
2023-03-31T03:49:52.039Z,36.35
2023-03-31T03:50:52.094Z,32.88
2023-03-31T03:51:52.148Z,36.12
2023-03-31T03:52:52.210Z,33.68
2023-03-31T03:53:52.261Z,35.92
2023-03-31T03:54:52.318Z,36.30
2023-03-31T03:55:52.394Z,36.44
2023-03-31T03:56:52.467Z,41.01
2023-03-31T03:57:52.494Z,36.44
2023-03-31T03:58:52.570Z,38.41
2023-03-31T03:59:52.635Z,35.09
2023-03-31T04:00:52.699Z,30.80
2023-03-31T04:01:52.846Z,27.68
2023-03-31T04:02:52.898Z,32.02
2023-03-31T04:03:52.885Z,34.99
2023-03-31T04:04:52.971Z,32.01
2023-03-31T04:05:52.981Z,41.48
2023-03-31T04:06:53.041Z,33.30
2023-03-31T04:07:53.110Z,34.49
2023-03-31T04:08:53.160Z,37.57
2023-03-31T04:09:53.224Z,35.22
2023-03-31T04:10:53.285Z,30.47
2023-03-31T04:11:53.344Z,26.90
2023-03-31T04:12:53.388Z,25.21
2023-03-31T04:13:53.427Z,29.11
2023-03-31T04:14:53.502Z,29.60
2023-03-31T04:15:53.556Z,29.06
2023-03-31T04:16:53.601Z,32.79
2023-03-31T04:17:53.711Z,29.65
2023-03-31T04:18:53.731Z,36.97
2023-03-31T04:19:53.783Z,29.60
2023-03-31T04:20:53.836Z,31.54
2023-03-31T04:21:53.913Z,34.54
2023-03-31T04:22:53.961Z,28.34
2023-03-31T04:23:54.029Z,30.86
2023-03-31T04:24:54.068Z,27.78
2023-03-31T04:25:54.151Z,32.95
2023-03-31T04:26:54.231Z,32.75
2023-03-31T04:27:54.255Z,35.94
2023-03-31T04:28:54.320Z,31.99
2023-03-31T04:29:54.387Z,33.33
2023-03-31T04:30:54.423Z,33.56
2023-03-31T04:31:54.575Z,34.81
2023-03-31T04:32:54.552Z,34.67
2023-03-31T04:33:54.609Z,31.23
2023-03-31T04:34:54.670Z,34.26
2023-03-31T04:35:54.754Z,34.34
2023-03-31T04:36:54.811Z,36.66
2023-03-31T04:37:54.838Z,36.98
2023-03-31T04:38:55.042Z,34.85
2023-03-31T04:39:54.966Z,36.47
2023-03-31T04:40:55.033Z,33.01
2023-03-31T04:41:55.071Z,39.51
2023-03-31T04:42:55.139Z,38.98
2023-03-31T04:43:55.232Z,34.55
2023-03-31T04:44:55.268Z,38.02
2023-03-31T04:45:55.320Z,37.78
2023-03-31T04:46:55.386Z,39.22
2023-03-31T04:47:55.491Z,36.22
2023-03-31T04:48:55.479Z,35.38
2023-03-31T04:49:55.550Z,34.46
2023-03-31T04:50:55.601Z,35.89
2023-03-31T04:51:55.676Z,35.72
2023-03-31T04:52:55.714Z,36.20
2023-03-31T04:53:55.768Z,34.90
2023-03-31T04:54:55.826Z,36.01
2023-03-31T04:55:55.885Z,31.76
2023-03-31T04:56:56.008Z,35.13
2023-03-31T04:57:55.990Z,28.39
2023-03-31T04:58:56.054Z,40.12
2023-03-31T04:59:56.125Z,36.08
2023-03-31T05:00:56.187Z,35.34
2023-03-31T05:01:56.274Z,37.69
2023-03-31T05:02:56.368Z,38.39
2023-03-31T05:03:56.350Z,40.31
2023-03-31T05:04:56.418Z,43.93
2023-03-31T05:05:56.469Z,42.49
2023-03-31T05:06:56.542Z,41.08
2023-03-31T05:07:56.590Z,37.35
2023-03-31T05:08:56.649Z,42.48
2023-03-31T05:09:56.719Z,40.36
2023-03-31T05:10:56.771Z,43.36
2023-03-31T05:11:56.822Z,39.43
2023-03-31T05:12:56.898Z,42.73
2023-03-31T05:13:56.948Z,41.79
2023-03-31T05:14:57.016Z,44.27
2023-03-31T05:15:57.064Z,42.04
2023-03-31T05:16:57.210Z,48.17
2023-03-31T05:17:57.226Z,44.80
2023-03-31T05:18:57.251Z,48.56
2023-03-31T05:19:57.305Z,46.17
2023-03-31T05:20:57.362Z,46.98
2023-03-31T05:21:57.411Z,44.23
2023-03-31T05:22:57.468Z,44.40
2023-03-31T05:23:57.513Z,40.20
2023-03-31T05:24:57.574Z,39.91
2023-03-31T05:25:57.638Z,43.92
2023-03-31T05:26:57.715Z,38.00
2023-03-31T05:27:57.801Z,37.20
2023-03-31T05:28:57.824Z,39.61
2023-03-31T05:29:57.882Z,39.90
2023-03-31T05:30:57.931Z,37.90
2023-03-31T05:31:58.031Z,40.59
2023-03-31T05:32:58.181Z,44.03
2023-03-31T05:33:58.101Z,45.81
2023-03-31T05:34:58.156Z,53.76
2023-03-31T05:35:58.232Z,48.78
2023-03-31T05:36:58.232Z,47.10
2023-03-31T05:37:58.300Z,53.88
2023-03-31T05:38:58.355Z,50.97
2023-03-31T05:39:58.435Z,59.76
2023-03-31T05:40:58.485Z,67.00
2023-03-31T05:41:58.541Z,75.57
2023-03-31T05:42:58.634Z,84.70
2023-03-31T05:43:58.647Z,79.62
2023-03-31T05:44:58.683Z,92.30
2023-03-31T05:45:58.740Z,94.65
2023-03-31T05:46:58.755Z,99.63
2023-03-31T05:47:58.832Z,109.67
2023-03-31T05:48:58.866Z,116.79
2023-03-31T05:49:58.849Z,117.22
2023-03-31T05:50:58.885Z,134.25
2023-03-31T05:51:58.921Z,129.03
2023-03-31T05:52:59.151Z,138.01
2023-03-31T05:53:58.942Z,131.18
2023-03-31T05:54:58.987Z,131.52
2023-03-31T05:55:58.993Z,189.74
2023-03-31T05:56:59.055Z,234.83
2023-03-31T05:57:59.051Z,250.00
2023-03-31T05:58:59.057Z,240.00
2023-03-31T05:59:59.095Z,349.07
2023-03-31T06:00:59.132Z,448.14
2023-03-31T06:01:59.208Z,315.64
2023-03-31T06:02:59.237Z,367.68
2023-03-31T06:03:59.189Z,308.29
2023-03-31T06:04:59.187Z,263.29
2023-03-31T06:05:59.183Z,232.78
2023-03-31T06:06:59.172Z,228.82
2023-03-31T06:07:59.194Z,242.60
2023-03-31T06:08:59.216Z,221.29
2023-03-31T06:09:59.191Z,229.49
2023-03-31T06:10:59.197Z,229.21
2023-03-31T06:11:59.238Z,213.09
2023-03-31T06:12:59.659Z,187.50
2023-03-31T06:13:59.679Z,176.29
2023-03-31T06:14:59.215Z,162.66
2023-03-31T06:15:59.221Z,150.51
2023-03-31T06:16:59.236Z,137.24
2023-03-31T06:17:59.272Z,114.76
2023-03-31T06:18:59.255Z,106.07
2023-03-31T06:19:59.244Z,110.82
2023-03-31T06:20:59.258Z,109.10
2023-03-31T06:21:59.274Z,114.10
2023-03-31T06:22:59.289Z,113.35
2023-03-31T06:23:59.285Z,111.12
2023-03-31T06:24:59.304Z,108.44
2023-03-31T06:25:59.303Z,102.81
2023-03-31T06:26:59.315Z,130.19
2023-03-31T06:27:59.305Z,163.20
2023-03-31T06:28:59.301Z,162.63
2023-03-31T06:29:59.311Z,146.81
2023-03-31T06:30:59.304Z,108.48
2023-03-31T06:31:59.348Z,105.38
2023-03-31T06:32:59.338Z,106.75
2023-03-31T06:33:59.709Z,102.45
2023-03-31T06:34:59.309Z,99.68
2023-03-31T06:35:59.332Z,103.65
2023-03-31T06:36:59.310Z,105.52
2023-03-31T06:37:59.326Z,105.38
2023-03-31T06:38:59.320Z,94.80
2023-03-31T06:39:59.330Z,90.10
2023-03-31T06:40:59.345Z,73.43
2023-03-31T06:41:59.397Z,57.83
2023-03-31T06:42:59.364Z,45.01
2023-03-31T06:43:59.405Z,40.04
2023-03-31T06:44:59.472Z,30.46
2023-03-31T06:45:59.539Z,25.36
2023-03-31T06:46:59.553Z,26.48
2023-03-31T06:47:59.700Z,20.91
2023-03-31T06:49:00.164Z,26.61
2023-03-31T06:49:59.738Z,29.20
2023-03-31T06:50:59.749Z,32.09
2023-03-31T06:51:59.809Z,36.51
2023-03-31T06:52:59.862Z,39.06
2023-03-31T06:54:00.160Z,42.75
2023-03-31T06:54:59.970Z,49.40
2023-03-31T06:56:00.054Z,91.96
2023-03-31T06:57:00.111Z,113.06
2023-03-31T06:58:00.120Z,146.86
2023-03-31T06:59:00.156Z,119.29
2023-03-31T07:00:00.171Z,106.96
2023-03-31T07:01:01.092Z,96.54
2023-03-31T07:02:00.247Z,92.82
2023-03-31T07:03:00.309Z,92.02
2023-03-31T07:04:00.677Z,88.43
2023-03-31T07:05:00.322Z,87.87
2023-03-31T07:06:00.272Z,87.57
2023-03-31T07:07:00.237Z,84.81
2023-03-31T07:08:00.248Z,76.10
2023-03-31T07:09:00.662Z,76.92
2023-03-31T07:10:00.256Z,76.06
2023-03-31T07:11:00.236Z,80.19
2023-03-31T07:12:00.231Z,81.35
2023-03-31T07:13:00.242Z,80.98
2023-03-31T07:14:00.288Z,81.90
2023-03-31T07:15:00.253Z,82.29
2023-03-31T07:16:00.371Z,80.85
2023-03-31T07:17:00.296Z,79.70
2023-03-31T07:18:00.314Z,80.24
2023-03-31T07:19:00.255Z,82.49
2023-03-31T07:20:00.245Z,83.55
2023-03-31T07:21:00.245Z,84.39
2023-03-31T07:22:00.247Z,86.31
2023-03-31T07:23:00.272Z,87.42
2023-03-31T07:24:00.264Z,88.69
2023-03-31T07:25:00.270Z,88.70
2023-03-31T07:26:00.241Z,93.37
2023-03-31T07:27:00.320Z,50.84
2023-03-31T07:28:00.312Z,25.00
2023-03-31T07:29:00.386Z,14.64
2023-03-31T07:30:00.691Z,12.11
2023-03-31T07:31:00.391Z,22.88
2023-03-31T07:32:00.448Z,20.38
2023-03-31T07:33:00.575Z,18.01
2023-03-31T07:34:00.692Z,35.09
2023-03-31T07:35:00.524Z,30.00
2023-03-31T07:36:10.685Z,34.67
2023-03-31T07:37:01.513Z,34.76
2023-03-31T07:38:00.530Z,35.24
2023-03-31T07:39:00.678Z,36.39
2023-03-31T07:40:00.701Z,40.84
2023-03-31T07:41:08.612Z,47.74
2023-03-31T07:42:01.510Z,35.27
2023-03-31T07:43:00.490Z,36.85
2023-03-31T07:44:00.493Z,40.31
2023-03-31T07:45:00.715Z,47.66
2023-03-31T07:46:00.476Z,54.87
2023-03-31T07:47:00.477Z,55.01
2023-03-31T07:48:00.506Z,61.74
2023-03-31T07:49:00.494Z,61.57
2023-03-31T07:50:00.527Z,58.96
2023-03-31T07:51:00.554Z,57.33
2023-03-31T07:52:00.606Z,59.76
2023-03-31T07:53:00.610Z,56.49
2023-03-31T07:54:00.638Z,57.95
2023-03-31T07:55:00.676Z,61.06
2023-03-31T07:56:00.670Z,59.66
2023-03-31T07:57:00.759Z,61.26
2023-03-31T07:58:00.717Z,62.12
2023-03-31T07:59:00.768Z,61.16
2023-03-31T08:00:00.731Z,67.69
2023-03-31T08:01:00.740Z,59.97
2023-03-31T08:02:00.786Z,62.50
2023-03-31T08:03:00.838Z,60.36
2023-03-31T08:04:00.828Z,59.33
2023-03-31T08:05:00.767Z,60.03
2023-03-31T08:06:00.776Z,61.60
2023-03-31T08:07:00.778Z,62.34
2023-03-31T08:08:00.784Z,50.62
2023-03-31T08:09:01.188Z,43.28
2023-03-31T08:10:00.820Z,40.44
2023-03-31T08:11:00.829Z,54.00
2023-03-31T08:12:00.894Z,78.05
2023-03-31T08:13:00.912Z,76.71
2023-03-31T08:14:00.940Z,99.75
2023-03-31T08:15:00.982Z,92.85
2023-03-31T08:16:00.976Z,75.18
2023-03-31T08:17:00.985Z,69.72
2023-03-31T08:18:01.005Z,65.20
2023-03-31T08:19:00.994Z,60.87
2023-03-31T08:20:06.051Z,57.75
2023-03-31T08:21:02.001Z,31.28
2023-03-31T08:22:01.186Z,51.96
2023-03-31T08:23:01.027Z,58.37
2023-03-31T08:24:01.007Z,65.37
2023-03-31T08:25:01.010Z,72.78
2023-03-31T08:26:00.964Z,80.39
2023-03-31T08:27:01.195Z,89.92
2023-03-31T08:28:00.954Z,93.53
2023-03-31T08:29:00.963Z,95.74
2023-03-31T08:30:00.954Z,97.23
2023-03-31T08:31:00.928Z,97.27
2023-03-31T08:32:01.033Z,99.57
2023-03-31T08:33:01.038Z,99.68
2023-03-31T08:34:01.075Z,101.96
2023-03-31T08:35:01.130Z,102.17
2023-03-31T08:36:01.172Z,104.36
2023-03-31T08:37:02.559Z,99.17
2023-03-31T08:38:01.202Z,102.74
2023-03-31T08:39:01.185Z,109.10
2023-03-31T08:40:01.247Z,108.41
2023-03-31T08:41:01.173Z,111.52
2023-03-31T08:42:01.175Z,111.86
2023-03-31T08:43:01.169Z,145.55
2023-03-31T08:44:01.173Z,306.32
2023-03-31T08:45:01.148Z,193.64
2023-03-31T08:46:01.343Z,154.23
2023-03-31T08:47:01.164Z,157.65
2023-03-31T08:48:01.229Z,149.36
2023-03-31T08:49:01.210Z,128.85
2023-03-31T08:50:01.116Z,120.62
2023-03-31T08:51:01.109Z,106.21
2023-03-31T08:52:01.230Z,115.30
2023-03-31T08:53:01.112Z,129.94
2023-03-31T08:54:01.099Z,227.95
2023-03-31T08:55:01.079Z,326.73
2023-03-31T08:56:01.066Z,231.90
2023-03-31T08:57:01.086Z,222.21
2023-03-31T08:58:01.071Z,174.55
2023-03-31T08:59:01.067Z,165.74
2023-03-31T09:00:01.215Z,158.37
2023-03-31T09:01:01.062Z,162.39
2023-03-31T09:02:01.066Z,162.33
2023-03-31T09:03:01.097Z,149.87
2023-03-31T09:04:01.787Z,144.76
2023-03-31T09:05:01.032Z,146.18
2023-03-31T09:06:01.247Z,144.58
2023-03-31T09:07:01.061Z,142.22
2023-03-31T09:08:01.229Z,142.95
2023-03-31T09:09:00.978Z,142.58
2023-03-31T09:10:01.216Z,139.64
2023-03-31T09:11:00.990Z,138.24
2023-03-31T09:12:00.958Z,140.29
2023-03-31T09:13:01.213Z,141.44
2023-03-31T09:14:01.018Z,139.98
2023-03-31T09:15:01.061Z,137.34
2023-03-31T09:16:01.094Z,135.62
2023-03-31T09:17:01.204Z,135.92
2023-03-31T09:18:01.224Z,126.42
2023-03-31T09:19:01.241Z,130.04
2023-03-31T09:20:01.289Z,129.92
2023-03-31T09:21:01.307Z,194.23
2023-03-31T09:22:01.333Z,184.56
2023-03-31T09:23:01.399Z,149.79
2023-03-31T09:24:01.413Z,129.95
2023-03-31T09:25:01.446Z,128.53
2023-03-31T09:26:01.488Z,117.34
2023-03-31T09:27:01.526Z,117.80
2023-03-31T09:28:01.621Z,119.80
2023-03-31T09:29:01.664Z,122.30
2023-03-31T09:30:01.676Z,123.67
2023-03-31T09:31:01.814Z,121.70
2023-03-31T09:32:01.944Z,119.78
2023-03-31T09:33:01.895Z,111.74
2023-03-31T09:34:01.912Z,121.60
2023-03-31T09:35:02.231Z,125.00
2023-03-31T09:36:02.145Z,125.75
2023-03-31T09:37:02.083Z,124.09
2023-03-31T09:38:02.129Z,123.69
2023-03-31T09:39:02.178Z,124.74
2023-03-31T09:40:02.740Z,122.64
2023-03-31T09:41:02.380Z,121.65
2023-03-31T09:42:02.378Z,120.49
2023-03-31T09:43:02.455Z,119.96
2023-03-31T09:44:02.479Z,118.88
2023-03-31T09:45:02.549Z,117.25
2023-03-31T09:46:09.737Z,115.54
2023-03-31T09:47:03.735Z,115.55
2023-03-31T09:48:02.705Z,112.74
2023-03-31T09:49:02.591Z,110.76
2023-03-31T09:50:02.579Z,108.93
2023-03-31T09:51:02.617Z,106.97
2023-03-31T09:52:02.668Z,105.82
2023-03-31T09:53:02.654Z,105.19
2023-03-31T09:54:02.675Z,104.04
2023-03-31T09:55:02.763Z,103.10
2023-03-31T09:56:02.741Z,102.78
2023-03-31T09:57:02.757Z,101.33
2023-03-31T09:58:02.784Z,101.38
2023-03-31T09:59:02.818Z,98.52
2023-03-31T10:00:02.896Z,98.11
2023-03-31T10:01:02.915Z,98.41
2023-03-31T10:02:03.046Z,97.82
2023-03-31T10:03:02.994Z,97.21
2023-03-31T10:04:03.211Z,96.53
2023-03-31T10:05:03.227Z,95.74
2023-03-31T10:06:03.108Z,95.27
2023-03-31T10:07:03.130Z,94.85
2023-03-31T10:08:03.164Z,94.54
2023-03-31T10:09:03.194Z,92.68
2023-03-31T10:10:03.247Z,93.51
2023-03-31T10:11:03.932Z,92.89
2023-03-31T10:12:03.287Z,92.33
2023-03-31T10:13:03.325Z,91.57
2023-03-31T10:14:03.383Z,91.47
2023-03-31T10:15:03.418Z,92.31
2023-03-31T10:16:03.523Z,90.82
2023-03-31T10:17:03.503Z,91.26
2023-03-31T10:18:03.580Z,91.54
2023-03-31T10:19:03.596Z,90.56
2023-03-31T10:20:03.644Z,90.12
2023-03-31T10:21:03.816Z,82.71
2023-03-31T10:22:03.636Z,83.40
2023-03-31T10:23:03.619Z,83.14
2023-03-31T10:24:03.614Z,81.67
2023-03-31T10:25:03.623Z,85.81
2023-03-31T10:26:03.646Z,84.98
2023-03-31T10:27:03.607Z,90.25
2023-03-31T10:28:03.675Z,89.13
2023-03-31T10:29:03.727Z,91.47
2023-03-31T10:30:03.785Z,88.58
2023-03-31T10:31:04.452Z,91.66
2023-03-31T10:32:03.916Z,92.46
2023-03-31T10:33:15.139Z,94.51
2023-03-31T10:34:04.956Z,94.81
2023-03-31T10:35:03.985Z,95.29
2023-03-31T10:36:03.966Z,97.19
2023-03-31T10:37:03.937Z,101.54
2023-03-31T10:38:05.879Z,106.45
2023-03-31T10:39:04.162Z,114.80
2023-03-31T10:40:04.263Z,121.90
2023-03-31T10:41:04.559Z,131.53
2023-03-31T10:42:04.272Z,133.34
2023-03-31T10:43:04.326Z,131.95
2023-03-31T10:44:04.382Z,126.94
2023-03-31T10:45:04.415Z,134.37
2023-03-31T10:46:04.444Z,135.74
2023-03-31T10:47:04.532Z,137.25
2023-03-31T10:48:04.558Z,127.68
2023-03-31T10:49:04.562Z,114.05
2023-03-31T10:50:04.590Z,112.38
2023-03-31T10:51:05.136Z,114.71
2023-03-31T10:52:04.672Z,113.73
2023-03-31T10:53:04.739Z,112.47
2023-03-31T10:54:04.837Z,110.04
2023-03-31T10:55:04.835Z,110.44
2023-03-31T10:56:05.241Z,109.38
2023-03-31T10:57:04.931Z,113.23
2023-03-31T10:58:04.920Z,109.55
2023-03-31T10:59:06.342Z,101.61
2023-03-31T11:00:05.001Z,106.29
2023-03-31T11:01:05.369Z,99.66
2023-03-31T11:02:05.307Z,196.18
2023-03-31T11:03:05.210Z,141.75
2023-03-31T11:04:05.393Z,134.96
2023-03-31T11:05:05.192Z,131.96
2023-03-31T11:06:05.246Z,128.08
2023-03-31T11:07:05.276Z,127.80
2023-03-31T11:08:05.364Z,123.09
2023-03-31T11:09:05.367Z,114.67
2023-03-31T11:10:05.396Z,98.01
2023-03-31T11:11:05.931Z,103.12
2023-03-31T11:12:05.516Z,88.05
2023-03-31T11:13:05.632Z,96.35
2023-03-31T11:14:05.620Z,108.99
2023-03-31T11:15:05.723Z,105.15
2023-03-31T11:16:05.794Z,97.46
2023-03-31T11:17:05.854Z,109.93
2023-03-31T11:18:05.942Z,106.31
2023-03-31T11:19:05.911Z,102.71
2023-03-31T11:20:05.935Z,87.02
2023-03-31T11:21:06.084Z,109.58
2023-03-31T11:22:05.941Z,105.78
2023-03-31T11:23:05.959Z,91.60
2023-03-31T11:24:05.960Z,103.91
2023-03-31T11:25:05.946Z,103.38
2023-03-31T11:26:05.992Z,94.51
2023-03-31T11:27:05.938Z,97.36
2023-03-31T11:28:05.942Z,103.80
2023-03-31T11:29:05.952Z,101.97
2023-03-31T11:30:05.949Z,99.28
2023-03-31T11:31:06.108Z,101.29
2023-03-31T11:32:05.982Z,94.53
2023-03-31T11:33:05.956Z,99.15
2023-03-31T11:34:05.942Z,98.59
2023-03-31T11:35:05.939Z,98.94
2023-03-31T11:36:05.982Z,95.24
2023-03-31T11:37:05.937Z,95.67
2023-03-31T11:38:05.947Z,95.11
2023-03-31T11:39:05.916Z,95.00
2023-03-31T11:40:05.939Z,95.76
2023-03-31T11:41:06.110Z,95.90
2023-03-31T11:42:05.998Z,96.16
2023-03-31T11:43:06.061Z,96.94
2023-03-31T11:44:06.100Z,96.92
2023-03-31T11:45:06.173Z,97.53
2023-03-31T11:46:06.479Z,98.28
2023-03-31T11:47:06.286Z,97.85
2023-03-31T11:48:07.743Z,97.33
2023-03-31T11:49:06.411Z,98.43
2023-03-31T11:50:06.477Z,98.74
2023-03-31T11:51:06.528Z,98.02
2023-03-31T11:52:06.609Z,98.48
2023-03-31T11:53:06.632Z,96.79
2023-03-31T11:54:06.694Z,96.65
2023-03-31T11:55:06.748Z,96.55
2023-03-31T11:56:06.951Z,95.80
2023-03-31T11:57:06.973Z,95.79
2023-03-31T11:58:06.952Z,95.39
2023-03-31T11:59:07.008Z,95.14
2023-03-31T12:00:07.090Z,95.31
2023-03-31T12:01:07.163Z,93.44
2023-03-31T12:02:07.268Z,93.62
2023-03-31T12:03:07.419Z,92.99
2023-03-31T12:04:07.438Z,91.97
2023-03-31T12:05:07.391Z,92.35
2023-03-31T12:06:07.737Z,92.31
2023-03-31T12:07:07.501Z,91.36
2023-03-31T12:08:07.577Z,89.44
2023-03-31T12:09:07.617Z,89.48
2023-03-31T12:10:07.732Z,90.71
2023-03-31T12:11:07.742Z,88.55
2023-03-31T12:12:07.817Z,87.90
2023-03-31T12:13:07.876Z,87.02
2023-03-31T12:14:07.921Z,87.19
2023-03-31T12:15:07.958Z,87.38
2023-03-31T12:16:08.172Z,85.49
2023-03-31T12:17:08.044Z,85.93
2023-03-31T12:18:08.174Z,85.40
2023-03-31T12:19:08.139Z,84.20
2023-03-31T12:20:08.193Z,84.43
2023-03-31T12:21:08.241Z,84.29
2023-03-31T12:22:08.280Z,82.96
2023-03-31T12:23:08.328Z,82.67
2023-03-31T12:24:08.628Z,81.99
2023-03-31T12:25:08.424Z,82.43
2023-03-31T12:26:08.603Z,81.46
2023-03-31T12:27:08.504Z,80.34
2023-03-31T12:28:08.533Z,79.91
2023-03-31T12:29:08.563Z,79.25
2023-03-31T12:30:08.584Z,78.53
2023-03-31T12:31:08.638Z,79.04
2023-03-31T12:32:08.648Z,76.98
2023-03-31T12:33:08.764Z,77.89
2023-03-31T12:34:08.750Z,76.40
2023-03-31T12:35:08.765Z,75.69
2023-03-31T12:36:08.998Z,76.20
2023-03-31T12:37:08.775Z,75.79
2023-03-31T12:38:08.817Z,75.48
2023-03-31T12:39:08.819Z,74.37
2023-03-31T12:40:08.841Z,75.35
2023-03-31T12:41:08.863Z,73.87
2023-03-31T12:42:08.868Z,74.07
2023-03-31T12:43:08.931Z,72.81
2023-03-31T12:44:08.953Z,72.37
2023-03-31T12:45:08.924Z,72.54
2023-03-31T12:46:08.987Z,71.88
2023-03-31T12:47:08.987Z,71.07